createdAt,value
2023-03-12T00:03:20.660Z,2.30
2023-03-12T00:08:24.322Z,2.30
2023-03-12T00:13:29.088Z,2.40
2023-03-12T00:18:32.491Z,2.40
2023-03-12T00:23:36.392Z,2.40
2023-03-12T00:28:41.757Z,2.50
2023-03-12T00:33:45.777Z,2.40
2023-03-12T00:38:49.417Z,2.30
2023-03-12T00:43:54.635Z,2.20
2023-03-12T00:48:58.329Z,2.20
2023-03-12T00:54:01.699Z,2.20
2023-03-12T00:59:06.400Z,2.20
2023-03-12T01:04:10.324Z,2.20
2023-03-12T01:09:14.366Z,2.20
2023-03-12T01:14:19.091Z,2.20
2023-03-12T01:19:22.754Z,2.20
2023-03-12T01:24:26.414Z,2.20
2023-03-12T01:29:31.443Z,2.10
2023-03-12T01:34:35.607Z,2.10
2023-03-12T01:39:39.067Z,2.10
2023-03-12T01:44:58.194Z,2.10
2023-03-12T01:50:03.328Z,2.20
2023-03-12T01:55:10.383Z,2.20
2023-03-12T02:00:18.513Z,2.30
2023-03-12T02:05:29.035Z,2.30
2023-03-12T02:10:32.709Z,2.40
2023-03-12T02:15:38.569Z,2.40
2023-03-12T02:20:48.335Z,2.40
2023-03-12T02:25:54.873Z,2.30
2023-03-12T02:31:01.458Z,2.40
2023-03-12T02:36:05.443Z,2.40
2023-03-12T02:41:17.696Z,2.40
2023-03-12T02:46:22.994Z,2.30
2023-03-12T02:51:26.497Z,2.30
2023-03-12T02:56:31.843Z,2.20
2023-03-12T03:01:35.389Z,2.30
2023-03-12T03:06:41.198Z,2.30
2023-03-12T03:11:45.969Z,2.30
2023-03-12T03:16:49.298Z,2.30
2023-03-12T03:21:52.778Z,2.20
2023-03-12T03:26:57.521Z,2.20
2023-03-12T03:32:01.186Z,2.30
2023-03-12T03:37:04.558Z,2.20
2023-03-12T03:42:09.409Z,2.30
2023-03-12T03:47:13.092Z,2.30
2023-03-12T03:52:16.579Z,2.30
2023-03-12T03:57:21.384Z,2.30
2023-03-12T04:02:24.771Z,2.30
2023-03-12T04:07:29.431Z,2.30
2023-03-12T04:12:34.169Z,2.30
2023-03-12T04:17:37.923Z,2.30
2023-03-12T04:22:41.376Z,2.20
2023-03-12T04:27:46.378Z,2.20
2023-03-12T04:32:50.296Z,2.30
2023-03-12T04:37:53.759Z,2.30
2023-03-12T04:42:58.499Z,2.30
2023-03-12T04:48:02.123Z,2.40
2023-03-12T04:53:05.534Z,2.40
2023-03-12T04:58:10.406Z,2.40
2023-03-12T05:03:13.858Z,2.40
2023-03-12T05:08:17.238Z,2.40
2023-03-12T05:13:23.899Z,2.50
2023-03-12T05:18:27.469Z,2.50
2023-03-12T05:23:31.850Z,2.50
2023-03-12T05:28:36.594Z,2.50
2023-03-12T05:33:40.490Z,2.40
2023-03-12T05:38:43.943Z,2.40
2023-03-12T05:43:49.063Z,2.30
2023-03-12T05:48:52.932Z,2.30
2023-03-12T05:53:56.499Z,2.30
2023-03-12T05:59:01.245Z,2.30
2023-03-12T06:04:04.785Z,2.30
2023-03-12T06:09:08.277Z,2.40
2023-03-12T06:14:13.124Z,2.40
2023-03-12T06:19:16.511Z,2.50
2023-03-12T06:24:20.197Z,2.50
2023-03-12T06:29:24.902Z,2.60
2023-03-12T06:34:28.657Z,2.70
2023-03-12T06:39:32.084Z,2.80
2023-03-12T06:44:36.879Z,2.90
2023-03-12T06:49:40.503Z,2.90
2023-03-12T06:54:44.257Z,3.00
2023-03-12T06:59:50.608Z,3.10
2023-03-12T07:04:54.467Z,3.10
2023-03-12T07:09:58.770Z,3.20
2023-03-12T07:15:03.613Z,3.30
2023-03-12T07:20:08.437Z,3.30
2023-03-12T07:25:12.742Z,3.40
2023-03-12T07:30:18.315Z,3.40
2023-03-12T07:35:22.276Z,3.50
2023-03-12T07:40:26.172Z,3.60
2023-03-12T07:45:31.169Z,3.70
2023-03-12T07:50:35.114Z,3.70
2023-03-12T07:55:38.864Z,3.80
2023-03-12T08:00:44.527Z,3.80
2023-03-12T08:05:57.395Z,3.90
2023-03-12T08:11:01.374Z,3.90
2023-03-12T08:16:09.347Z,3.70
2023-03-12T08:21:16.376Z,3.80
2023-03-12T08:26:19.878Z,4.00
2023-03-12T08:31:24.671Z,4.00
2023-03-12T08:36:28.095Z,4.10
2023-03-12T08:41:31.544Z,4.10
2023-03-12T08:46:36.316Z,4.20
2023-03-12T08:51:39.699Z,4.30
2023-03-12T08:56:43.761Z,4.30
2023-03-12T09:01:48.704Z,4.30
2023-03-12T09:06:52.412Z,4.30
2023-03-12T09:11:55.808Z,4.30
2023-03-12T09:17:04.491Z,4.30
2023-03-12T09:22:07.910Z,4.50
2023-03-12T09:27:11.684Z,4.60
2023-03-12T09:32:16.730Z,4.70
2023-03-12T09:37:23.893Z,4.70
2023-03-12T09:42:33.299Z,4.70
2023-03-12T09:47:44.373Z,4.90
2023-03-12T09:52:53.258Z,4.90
2023-03-12T09:57:59.445Z,4.90
2023-03-12T10:03:23.953Z,5.00
2023-03-12T10:08:33.802Z,4.90
2023-03-12T10:13:50.805Z,4.90
2023-03-12T10:19:06.734Z,4.90
2023-03-12T10:24:32.592Z,4.90
2023-03-12T10:29:42.070Z,5.00
2023-03-12T10:34:52.805Z,5.30
2023-03-12T10:39:57.282Z,5.50
2023-03-12T10:45:04.920Z,5.70
2023-03-12T10:50:18.978Z,5.80
2023-03-12T10:55:26.290Z,5.80
2023-03-12T11:00:32.154Z,5.90
2023-03-12T11:05:48.603Z,6.00
2023-03-12T11:10:52.318Z,6.20
2023-03-12T11:15:57.230Z,6.40
2023-03-12T11:21:16.932Z,6.50
2023-03-12T11:26:22.531Z,6.70
2023-03-12T11:31:29.581Z,6.90
2023-03-12T11:36:48.258Z,7.00
2023-03-12T11:42:08.190Z,7.10
2023-03-12T11:47:19.512Z,7.30
2023-03-12T11:52:32.521Z,7.40
2023-03-12T11:57:45.866Z,7.50
2023-03-12T12:03:03.451Z,7.60
2023-03-12T12:08:32.967Z,7.60
2023-03-12T12:13:49.664Z,7.70
2023-03-12T12:19:05.661Z,7.80
2023-03-12T12:24:18.672Z,7.70
2023-03-12T12:29:37.083Z,7.70
2023-03-12T12:35:08.992Z,7.80
2023-03-12T12:40:21.220Z,7.80
2023-03-12T12:45:28.506Z,7.90
2023-03-12T12:50:37.971Z,7.90
2023-03-12T12:55:50.868Z,8.00
2023-03-12T13:00:56.751Z,8.10
2023-03-12T13:06:02.234Z,8.10
2023-03-12T13:11:23.443Z,8.20
2023-03-12T13:16:33.881Z,8.10
2023-03-12T13:21:40.689Z,8.10
2023-03-12T13:26:54.688Z,8.20
2023-03-12T13:31:58.736Z,8.40
2023-03-12T13:37:04.012Z,8.60
2023-03-12T13:42:38.763Z,8.80
2023-03-12T13:47:45.088Z,9.10
2023-03-12T13:52:54.227Z,9.20
2023-03-12T13:58:05.618Z,9.20
2023-03-12T14:03:16.211Z,9.20
2023-03-12T14:08:44.344Z,9.10
2023-03-12T14:14:20.771Z,9.10
2023-03-12T14:19:27.427Z,9.10
2023-03-12T14:24:35.380Z,9.10
2023-03-12T14:29:44.564Z,9.10
2023-03-12T14:34:53.583Z,9.10
2023-03-12T14:40:02.217Z,9.00
2023-03-12T14:45:14.349Z,9.00
2023-03-12T14:50:21.466Z,9.00
2023-03-12T14:55:27.226Z,8.90
2023-03-12T15:00:32.276Z,8.80
2023-03-12T15:05:36.983Z,8.80
2023-03-12T15:10:43.306Z,8.70
2023-03-12T15:15:50.103Z,8.60
2023-03-12T15:20:55.479Z,8.60
2023-03-12T15:26:13.784Z,8.50
2023-03-12T15:31:18.722Z,8.50
2023-03-12T15:36:28.512Z,8.40
2023-03-12T15:41:49.659Z,8.40
2023-03-12T15:46:57.815Z,8.30
2023-03-12T15:52:06.599Z,8.30
2023-03-12T15:57:21.428Z,8.20
2023-03-12T16:02:37.821Z,8.20
2023-03-12T16:07:41.385Z,8.10
2023-03-12T16:12:45.761Z,8.10
2023-03-12T16:17:50.501Z,7.90
2023-03-12T16:22:54.220Z,7.80
2023-03-12T16:28:01.831Z,7.80
2023-03-12T16:33:09.142Z,7.80
2023-03-12T16:38:13.175Z,7.80
2023-03-12T16:43:19.369Z,7.80
2023-03-12T16:48:26.477Z,7.80
2023-03-12T16:53:30.412Z,7.80
2023-03-12T16:58:34.039Z,7.80
2023-03-12T17:03:40.492Z,7.70
2023-03-12T17:08:44.148Z,7.80
2023-03-12T17:13:50.273Z,7.80
2023-03-12T17:18:55.553Z,7.80
2023-03-12T17:23:59.022Z,7.70
2023-03-12T17:29:02.458Z,7.80
2023-03-12T17:34:07.344Z,7.80
2023-03-12T17:39:10.792Z,7.80
2023-03-12T17:44:15.999Z,7.70
2023-03-12T17:49:20.770Z,7.70
2023-03-12T17:54:24.982Z,7.70
2023-03-12T17:59:28.440Z,7.80
2023-03-12T18:04:33.327Z,7.80
2023-03-12T18:09:37.752Z,7.80
2023-03-12T18:14:41.373Z,7.80
2023-03-12T18:19:48.436Z,7.80
2023-03-12T18:24:52.032Z,7.80
2023-03-12T18:29:56.957Z,7.80
2023-03-12T18:35:01.918Z,7.80
2023-03-12T18:40:05.964Z,7.90
2023-03-12T18:45:09.918Z,7.90
2023-03-12T18:50:14.906Z,7.80
2023-03-12T18:55:18.711Z,7.80
2023-03-12T19:00:22.341Z,7.90
2023-03-12T19:05:27.109Z,7.90
2023-03-12T19:10:30.607Z,7.90
2023-03-12T19:15:34.171Z,7.90
2023-03-12T19:20:39.397Z,7.90
2023-03-12T19:25:42.775Z,7.90
2023-03-12T19:30:46.226Z,7.90
2023-03-12T19:35:52.289Z,7.90
2023-03-12T19:40:57.624Z,7.90
2023-03-12T19:46:01.121Z,7.90
2023-03-12T19:51:10.407Z,7.80
2023-03-12T19:56:14.397Z,7.80
2023-03-12T20:01:18.332Z,7.80
2023-03-12T20:06:23.211Z,7.80
2023-03-12T20:11:26.703Z,7.80
2023-03-12T20:16:30.214Z,7.80
2023-03-12T20:21:34.936Z,7.80
2023-03-12T20:26:39.502Z,7.80
2023-03-12T20:31:44.136Z,7.80
2023-03-12T20:36:49.420Z,7.80
2023-03-12T20:41:52.839Z,7.80
2023-03-12T20:46:57.315Z,7.80
2023-03-12T20:52:03.469Z,7.90
2023-03-12T20:57:06.853Z,7.80
2023-03-12T21:02:13.851Z,7.80
2023-03-12T21:07:18.661Z,7.90
2023-03-12T21:12:22.286Z,8.00
2023-03-12T21:17:25.850Z,7.90
2023-03-12T21:22:32.467Z,8.00
2023-03-12T21:27:48.065Z,8.00
2023-03-12T21:32:53.876Z,8.00
2023-03-12T21:37:59.123Z,8.10
2023-03-12T21:43:04.129Z,8.10
2023-03-12T21:48:07.933Z,8.10
2023-03-12T21:53:23.203Z,8.20
2023-03-12T21:58:28.797Z,8.20
2023-03-12T22:03:32.244Z,8.20
2023-03-12T22:08:37.540Z,8.30
2023-03-12T22:13:41.062Z,8.30
2023-03-12T22:18:46.402Z,8.30
2023-03-12T22:23:52.661Z,8.30
2023-03-12T22:28:58.017Z,8.30
2023-03-12T22:34:01.418Z,8.30
2023-03-12T22:39:06.785Z,8.30
2023-03-12T22:44:10.917Z,8.30
2023-03-12T22:49:16.459Z,8.30
2023-03-12T22:54:21.215Z,8.20
2023-03-12T22:59:24.872Z,8.20
2023-03-12T23:04:28.390Z,8.20
2023-03-12T23:09:33.491Z,8.20
2023-03-12T23:14:37.174Z,8.20
2023-03-12T23:19:42.723Z,8.30
2023-03-12T23:24:47.445Z,8.30
2023-03-12T23:29:50.950Z,8.40
2023-03-12T23:34:54.269Z,8.40
2023-03-12T23:39:59.387Z,8.50
2023-03-12T23:45:02.986Z,8.50
2023-03-12T23:50:07.125Z,8.60
2023-03-12T23:55:12.322Z,8.60
